sensor_id;sensor_type;location;lat;lon;timestamp;P1;durP1;ratioP1;P2;durP2;ratioP2
55368;SDS011;41247;49.736;8.752;2022-10-30T00:02:50;12.15;;;3.20;;
55368;SDS011;41247;49.736;8.752;2022-10-30T00:06:30;22.30;;;3.45;;
55368;SDS011;41247;49.736;8.752;2022-10-30T00:10:11;18.10;;;3.10;;
55368;SDS011;41247;49.736;8.752;2022-10-30T00:13:52;14.18;;;3.53;;
55368;SDS011;41247;49.736;8.752;2022-10-30T00:17:33;15.07;;;3.58;;
55368;SDS011;41247;49.736;8.752;2022-10-30T00:21:14;10.82;;;3.42;;
55368;SDS011;41247;49.736;8.752;2022-10-30T00:24:55;13.88;;;3.40;;
55368;SDS011;41247;49.736;8.752;2022-10-30T00:28:35;15.75;;;3.53;;
55368;SDS011;41247;49.736;8.752;2022-10-30T00:32:16;22.85;;;3.55;;
55368;SDS011;41247;49.736;8.752;2022-10-30T00:35:57;16.88;;;3.08;;
55368;SDS011;41247;49.736;8.752;2022-10-30T00:39:37;16.48;;;3.58;;
55368;SDS011;41247;49.736;8.752;2022-10-30T00:43:34;16.77;;;3.53;;
55368;SDS011;41247;49.736;8.752;2022-10-30T00:51:09;21.20;;;3.17;;
55368;SDS011;41247;49.736;8.752;2022-10-30T00:54:51;22.80;;;4.07;;
55368;SDS011;41247;49.736;8.752;2022-10-30T00:58:38;15.68;;;3.47;;
55368;SDS011;41247;49.736;8.752;2022-10-30T01:02:23;15.23;;;3.40;;
55368;SDS011;41247;49.736;8.752;2022-10-30T01:06:05;20.20;;;3.42;;
55368;SDS011;41247;49.736;8.752;2022-10-30T01:09:48;16.73;;;3.65;;
55368;SDS011;41247;49.736;8.752;2022-10-30T01:13:29;11.27;;;3.33;;
55368;SDS011;41247;49.736;8.752;2022-10-30T01:21:11;13.13;;;3.45;;
55368;SDS011;41247;49.736;8.752;2022-10-30T01:25:30;14.02;;;3.33;;
55368;SDS011;41247;49.736;8.752;2022-10-30T01:29:27;18.48;;;3.42;;
55368;SDS011;41247;49.736;8.752;2022-10-30T01:33:52;16.85;;;3.60;;
55368;SDS011;41247;49.736;8.752;2022-10-30T01:37:56;17.02;;;4.05;;
55368;SDS011;41247;49.736;8.752;2022-10-30T01:41:54;17.95;;;3.95;;
55368;SDS011;41247;49.736;8.752;2022-10-30T01:45:48;22.75;;;4.15;;
55368;SDS011;41247;49.736;8.752;2022-10-30T02:02:05;16.58;;;3.95;;
55368;SDS011;41247;49.736;8.752;2022-10-30T02:05:50;13.13;;;3.58;;
55368;SDS011;41247;49.736;8.752;2022-10-30T02:09:32;16.10;;;3.58;;
55368;SDS011;41247;49.736;8.752;2022-10-30T02:13:13;16.10;;;3.70;;
55368;SDS011;41247;49.736;8.752;2022-10-30T02:16:55;12.07;;;3.35;;
55368;SDS011;41247;49.736;8.752;2022-10-30T02:20:37;19.92;;;3.60;;
55368;SDS011;41247;49.736;8.752;2022-10-30T02:24:18;19.20;;;4.15;;
55368;SDS011;41247;49.736;8.752;2022-10-30T02:27:59;14.90;;;3.90;;
55368;SDS011;41247;49.736;8.752;2022-10-30T02:31:40;17.50;;;3.50;;
55368;SDS011;41247;49.736;8.752;2022-10-30T02:35:20;18.88;;;3.75;;
55368;SDS011;41247;49.736;8.752;2022-10-30T02:39:01;13.43;;;3.70;;
55368;SDS011;41247;49.736;8.752;2022-10-30T02:42:42;12.05;;;3.85;;
55368;SDS011;41247;49.736;8.752;2022-10-30T02:46:22;15.10;;;3.90;;
55368;SDS011;41247;49.736;8.752;2022-10-30T02:50:03;16.98;;;4.50;;
55368;SDS011;41247;49.736;8.752;2022-10-30T02:53:44;18.90;;;4.13;;
55368;SDS011;41247;49.736;8.752;2022-10-30T02:57:25;15.25;;;4.40;;
55368;SDS011;41247;49.736;8.752;2022-10-30T03:01:10;15.63;;;4.00;;
55368;SDS011;41247;49.736;8.752;2022-10-30T03:04:53;14.05;;;4.43;;
55368;SDS011;41247;49.736;8.752;2022-10-30T03:08:34;14.85;;;4.53;;
55368;SDS011;41247;49.736;8.752;2022-10-30T03:12:15;16.77;;;4.50;;
55368;SDS011;41247;49.736;8.752;2022-10-30T03:16:06;22.08;;;4.63;;
55368;SDS011;41247;49.736;8.752;2022-10-30T03:19:53;15.35;;;4.80;;
55368;SDS011;41247;49.736;8.752;2022-10-30T03:23:34;19.73;;;4.70;;
55368;SDS011;41247;49.736;8.752;2022-10-30T03:27:15;12.93;;;4.13;;
55368;SDS011;41247;49.736;8.752;2022-10-30T03:30:59;24.20;;;4.72;;
55368;SDS011;41247;49.736;8.752;2022-10-30T03:34:45;17.33;;;4.25;;
55368;SDS011;41247;49.736;8.752;2022-10-30T03:38:26;12.93;;;4.22;;
55368;SDS011;41247;49.736;8.752;2022-10-30T03:42:06;15.98;;;5.25;;
55368;SDS011;41247;49.736;8.752;2022-10-30T03:45:48;16.33;;;4.75;;
55368;SDS011;41247;49.736;8.752;2022-10-30T03:49:31;17.77;;;5.20;;
55368;SDS011;41247;49.736;8.752;2022-10-30T03:53:12;12.90;;;4.80;;
55368;SDS011;41247;49.736;8.752;2022-10-30T03:56:53;20.15;;;5.60;;
55368;SDS011;41247;49.736;8.752;2022-10-30T04:00:34;14.68;;;5.05;;
55368;SDS011;41247;49.736;8.752;2022-10-30T04:04:15;15.25;;;4.93;;
55368;SDS011;41247;49.736;8.752;2022-10-30T04:07:56;18.38;;;5.38;;
55368;SDS011;41247;49.736;8.752;2022-10-30T04:11:39;18.05;;;5.10;;
55368;SDS011;41247;49.736;8.752;2022-10-30T04:15:20;20.58;;;5.63;;
55368;SDS011;41247;49.736;8.752;2022-10-30T04:19:00;14.65;;;5.18;;
55368;SDS011;41247;49.736;8.752;2022-10-30T04:22:41;16.67;;;5.90;;
55368;SDS011;41247;49.736;8.752;2022-10-30T04:26:22;19.90;;;5.45;;
55368;SDS011;41247;49.736;8.752;2022-10-30T04:30:02;13.63;;;4.82;;
55368;SDS011;41247;49.736;8.752;2022-10-30T04:33:43;15.90;;;4.85;;
55368;SDS011;41247;49.736;8.752;2022-10-30T04:37:24;19.73;;;5.10;;
55368;SDS011;41247;49.736;8.752;2022-10-30T04:41:05;14.68;;;4.82;;
55368;SDS011;41247;49.736;8.752;2022-10-30T04:44:45;14.93;;;4.70;;
55368;SDS011;41247;49.736;8.752;2022-10-30T04:48:26;14.60;;;4.85;;
55368;SDS011;41247;49.736;8.752;2022-10-30T04:52:06;20.80;;;5.70;;
55368;SDS011;41247;49.736;8.752;2022-10-30T04:55:51;17.05;;;4.88;;
55368;SDS011;41247;49.736;8.752;2022-10-30T04:59:33;14.88;;;5.38;;
55368;SDS011;41247;49.736;8.752;2022-10-30T05:03:17;14.13;;;5.50;;
55368;SDS011;41247;49.736;8.752;2022-10-30T05:07:03;15.55;;;5.25;;
55368;SDS011;41247;49.736;8.752;2022-10-30T05:10:44;18.40;;;5.25;;
55368;SDS011;41247;49.736;8.752;2022-10-30T05:14:26;15.73;;;4.97;;
55368;SDS011;41247;49.736;8.752;2022-10-30T05:18:11;18.00;;;5.53;;
55368;SDS011;41247;49.736;8.752;2022-10-30T05:21:52;13.57;;;4.85;;
55368;SDS011;41247;49.736;8.752;2022-10-30T05:25:32;17.17;;;5.47;;
55368;SDS011;41247;49.736;8.752;2022-10-30T05:29:14;16.42;;;5.15;;
55368;SDS011;41247;49.736;8.752;2022-10-30T05:33:05;14.60;;;5.00;;
55368;SDS011;41247;49.736;8.752;2022-10-30T05:36:48;14.55;;;4.93;;
55368;SDS011;41247;49.736;8.752;2022-10-30T05:40:29;15.73;;;5.40;;
55368;SDS011;41247;49.736;8.752;2022-10-30T05:44:10;16.08;;;5.75;;
55368;SDS011;41247;49.736;8.752;2022-10-30T05:47:55;18.65;;;5.95;;
55368;SDS011;41247;49.736;8.752;2022-10-30T05:51:43;20.83;;;5.68;;
55368;SDS011;41247;49.736;8.752;2022-10-30T05:55:24;16.65;;;5.65;;
55368;SDS011;41247;49.736;8.752;2022-10-30T05:59:06;15.13;;;5.45;;
55368;SDS011;41247;49.736;8.752;2022-10-30T06:02:46;17.65;;;5.80;;
55368;SDS011;41247;49.736;8.752;2022-10-30T06:06:27;18.98;;;5.80;;
55368;SDS011;41247;49.736;8.752;2022-10-30T06:10:07;13.85;;;5.78;;
55368;SDS011;41247;49.736;8.752;2022-10-30T06:13:48;16.02;;;5.50;;
55368;SDS011;41247;49.736;8.752;2022-10-30T06:17:30;19.42;;;5.30;;
55368;SDS011;41247;49.736;8.752;2022-10-30T06:21:10;20.67;;;6.53;;
55368;SDS011;41247;49.736;8.752;2022-10-30T06:24:51;19.40;;;6.10;;
55368;SDS011;41247;49.736;8.752;2022-10-30T06:28:32;18.02;;;6.60;;
55368;SDS011;41247;49.736;8.752;2022-10-30T06:32:12;20.58;;;6.78;;
55368;SDS011;41247;49.736;8.752;2022-10-30T06:35:54;16.15;;;5.80;;
55368;SDS011;41247;49.736;8.752;2022-10-30T06:39:34;15.68;;;6.20;;
55368;SDS011;41247;49.736;8.752;2022-10-30T06:43:15;22.60;;;6.72;;
55368;SDS011;41247;49.736;8.752;2022-10-30T06:46:56;17.20;;;5.75;;
55368;SDS011;41247;49.736;8.752;2022-10-30T06:50:36;21.75;;;6.80;;
55368;SDS011;41247;49.736;8.752;2022-10-30T06:54:17;18.27;;;6.57;;
55368;SDS011;41247;49.736;8.752;2022-10-30T06:57:57;16.20;;;5.93;;
55368;SDS011;41247;49.736;8.752;2022-10-30T07:01:38;15.85;;;5.82;;
55368;SDS011;41247;49.736;8.752;2022-10-30T07:05:19;14.77;;;6.40;;
55368;SDS011;41247;49.736;8.752;2022-10-30T07:08:59;16.35;;;6.05;;
55368;SDS011;41247;49.736;8.752;2022-10-30T07:12:40;14.60;;;5.57;;
55368;SDS011;41247;49.736;8.752;2022-10-30T07:16:20;12.80;;;5.35;;
55368;SDS011;41247;49.736;8.752;2022-10-30T07:20:01;20.67;;;5.85;;
55368;SDS011;41247;49.736;8.752;2022-10-30T07:23:42;11.65;;;5.47;;
55368;SDS011;41247;49.736;8.752;2022-10-30T07:27:22;18.50;;;5.53;;
55368;SDS011;41247;49.736;8.752;2022-10-30T07:31:03;22.15;;;6.25;;
55368;SDS011;41247;49.736;8.752;2022-10-30T07:34:43;19.08;;;6.00;;
55368;SDS011;41247;49.736;8.752;2022-10-30T07:38:24;18.40;;;6.43;;
55368;SDS011;41247;49.736;8.752;2022-10-30T07:42:05;24.50;;;6.70;;
55368;SDS011;41247;49.736;8.752;2022-10-30T07:45:45;27.60;;;6.43;;
55368;SDS011;41247;49.736;8.752;2022-10-30T07:49:26;20.98;;;6.50;;
55368;SDS011;41247;49.736;8.752;2022-10-30T07:53:07;17.17;;;6.32;;
55368;SDS011;41247;49.736;8.752;2022-10-30T07:56:47;19.52;;;6.07;;
55368;SDS011;41247;49.736;8.752;2022-10-30T08:00:28;17.67;;;5.75;;
55368;SDS011;41247;49.736;8.752;2022-10-30T08:04:08;13.35;;;5.47;;
55368;SDS011;41247;49.736;8.752;2022-10-30T08:07:49;17.13;;;5.63;;
55368;SDS011;41247;49.736;8.752;2022-10-30T08:11:30;16.30;;;5.18;;
55368;SDS011;41247;49.736;8.752;2022-10-30T08:15:11;17.33;;;5.20;;
55368;SDS011;41247;49.736;8.752;2022-10-30T08:18:52;16.95;;;4.88;;
55368;SDS011;41247;49.736;8.752;2022-10-30T08:22:33;17.10;;;4.80;;
55368;SDS011;41247;49.736;8.752;2022-10-30T08:26:13;13.02;;;3.78;;
55368;SDS011;41247;49.736;8.752;2022-10-30T08:29:54;8.80;;;3.65;;
55368;SDS011;41247;49.736;8.752;2022-10-30T08:33:35;11.50;;;3.05;;
55368;SDS011;41247;49.736;8.752;2022-10-30T08:37:15;13.82;;;3.40;;
55368;SDS011;41247;49.736;8.752;2022-10-30T08:40:56;11.90;;;3.13;;
55368;SDS011;41247;49.736;8.752;2022-10-30T08:44:36;10.57;;;3.42;;
55368;SDS011;41247;49.736;8.752;2022-10-30T08:48:17;14.75;;;3.47;;
55368;SDS011;41247;49.736;8.752;2022-10-30T08:51:58;11.23;;;2.85;;
55368;SDS011;41247;49.736;8.752;2022-10-30T08:55:38;13.02;;;3.08;;
55368;SDS011;41247;49.736;8.752;2022-10-30T08:59:20;16.45;;;2.70;;
55368;SDS011;41247;49.736;8.752;2022-10-30T09:03:01;12.32;;;3.13;;
55368;SDS011;41247;49.736;8.752;2022-10-30T09:06:41;17.63;;;4.10;;
55368;SDS011;41247;49.736;8.752;2022-10-30T09:10:22;16.77;;;3.50;;
55368;SDS011;41247;49.736;8.752;2022-10-30T09:14:02;18.73;;;3.50;;
55368;SDS011;41247;49.736;8.752;2022-10-30T09:17:43;15.73;;;3.58;;
55368;SDS011;41247;49.736;8.752;2022-10-30T09:21:24;12.23;;;3.78;;
55368;SDS011;41247;49.736;8.752;2022-10-30T09:25:04;11.38;;;2.72;;
55368;SDS011;41247;49.736;8.752;2022-10-30T09:28:46;8.95;;;2.63;;
55368;SDS011;41247;49.736;8.752;2022-10-30T09:32:27;14.07;;;2.90;;
55368;SDS011;41247;49.736;8.752;2022-10-30T09:36:07;9.18;;;2.67;;
55368;SDS011;41247;49.736;8.752;2022-10-30T09:39:48;12.45;;;2.78;;
55368;SDS011;41247;49.736;8.752;2022-10-30T09:43:32;11.77;;;2.90;;
55368;SDS011;41247;49.736;8.752;2022-10-30T09:51:54;12.95;;;2.80;;
55368;SDS011;41247;49.736;8.752;2022-10-30T10:07:56;10.02;;;2.55;;
55368;SDS011;41247;49.736;8.752;2022-10-30T10:11:44;8.00;;;1.67;;
55368;SDS011;41247;49.736;8.752;2022-10-30T10:20:03;6.82;;;1.35;;
55368;SDS011;41247;49.736;8.752;2022-10-30T10:23:49;9.75;;;2.00;;
55368;SDS011;41247;49.736;8.752;2022-10-30T10:35:46;7.88;;;1.83;;
55368;SDS011;41247;49.736;8.752;2022-10-30T10:39:51;5.00;;;1.60;;
55368;SDS011;41247;49.736;8.752;2022-10-30T10:52:20;6.47;;;1.55;;
55368;SDS011;41247;49.736;8.752;2022-10-30T10:56:06;9.80;;;2.22;;
55368;SDS011;41247;49.736;8.752;2022-10-30T10:59:49;7.90;;;2.25;;
55368;SDS011;41247;49.736;8.752;2022-10-30T11:07:47;8.52;;;2.60;;
55368;SDS011;41247;49.736;8.752;2022-10-30T11:11:28;16.15;;;3.50;;
55368;SDS011;41247;49.736;8.752;2022-10-30T11:19:17;17.55;;;3.90;;
55368;SDS011;41247;49.736;8.752;2022-10-30T11:22:58;13.52;;;3.75;;
55368;SDS011;41247;49.736;8.752;2022-10-30T11:26:39;12.65;;;4.20;;
55368;SDS011;41247;49.736;8.752;2022-10-30T11:30:21;16.40;;;3.70;;
55368;SDS011;41247;49.736;8.752;2022-10-30T11:38:12;14.15;;;3.97;;
55368;SDS011;41247;49.736;8.752;2022-10-30T11:45:59;18.70;;;4.55;;
55368;SDS011;41247;49.736;8.752;2022-10-30T11:53:29;19.33;;;4.57;;
55368;SDS011;41247;49.736;8.752;2022-10-30T11:57:22;15.52;;;3.90;;
55368;SDS011;41247;49.736;8.752;2022-10-30T12:01:21;18.25;;;4.72;;
55368;SDS011;41247;49.736;8.752;2022-10-30T12:05:28;12.85;;;4.13;;
55368;SDS011;41247;49.736;8.752;2022-10-30T12:09:14;14.50;;;3.78;;
55368;SDS011;41247;49.736;8.752;2022-10-30T12:13:03;18.10;;;4.70;;
55368;SDS011;41247;49.736;8.752;2022-10-30T12:16:46;23.17;;;5.53;;
55368;SDS011;41247;49.736;8.752;2022-10-30T12:20:30;18.98;;;5.40;;
55368;SDS011;41247;49.736;8.752;2022-10-30T12:24:20;17.38;;;5.10;;
55368;SDS011;41247;49.736;8.752;2022-10-30T12:28:22;21.50;;;5.50;;
55368;SDS011;41247;49.736;8.752;2022-10-30T12:32:06;16.75;;;4.95;;
55368;SDS011;41247;49.736;8.752;2022-10-30T12:35:56;13.43;;;4.70;;
55368;SDS011;41247;49.736;8.752;2022-10-30T12:39:47;12.93;;;4.70;;
55368;SDS011;41247;49.736;8.752;2022-10-30T12:43:51;19.75;;;5.05;;
55368;SDS011;41247;49.736;8.752;2022-10-30T12:48:04;15.70;;;3.83;;
55368;SDS011;41247;49.736;8.752;2022-10-30T12:52:09;15.67;;;4.10;;
55368;SDS011;41247;49.736;8.752;2022-10-30T12:56:14;13.27;;;3.50;;
55368;SDS011;41247;49.736;8.752;2022-10-30T13:00:10;14.50;;;3.60;;
55368;SDS011;41247;49.736;8.752;2022-10-30T13:08:05;13.68;;;3.10;;
55368;SDS011;41247;49.736;8.752;2022-10-30T13:12:10;14.43;;;3.65;;
55368;SDS011;41247;49.736;8.752;2022-10-30T13:15:57;18.63;;;3.33;;
55368;SDS011;41247;49.736;8.752;2022-10-30T13:19:39;8.70;;;3.28;;
55368;SDS011;41247;49.736;8.752;2022-10-30T13:23:25;15.52;;;2.92;;
55368;SDS011;41247;49.736;8.752;2022-10-30T13:31:20;12.02;;;2.72;;
55368;SDS011;41247;49.736;8.752;2022-10-30T13:39:32;7.00;;;2.85;;
55368;SDS011;41247;49.736;8.752;2022-10-30T13:52:30;10.60;;;2.50;;
55368;SDS011;41247;49.736;8.752;2022-10-30T13:56:15;7.22;;;2.38;;
55368;SDS011;41247;49.736;8.752;2022-10-30T14:17:12;7.97;;;2.38;;
55368;SDS011;41247;49.736;8.752;2022-10-30T14:20:56;8.37;;;1.87;;
55368;SDS011;41247;49.736;8.752;2022-10-30T14:28:23;9.05;;;2.28;;
55368;SDS011;41247;49.736;8.752;2022-10-30T14:36:12;11.82;;;2.30;;
55368;SDS011;41247;49.736;8.752;2022-10-30T14:48:43;8.25;;;1.80;;
55368;SDS011;41247;49.736;8.752;2022-10-30T14:52:59;8.38;;;1.60;;
55368;SDS011;41247;49.736;8.752;2022-10-30T14:57:20;9.90;;;1.80;;
55368;SDS011;41247;49.736;8.752;2022-10-30T15:04:50;6.38;;;1.50;;
55368;SDS011;41247;49.736;8.752;2022-10-30T15:12:40;8.27;;;1.83;;
55368;SDS011;41247;49.736;8.752;2022-10-30T15:16:56;6.07;;;1.70;;
55368;SDS011;41247;49.736;8.752;2022-10-30T15:20:37;6.13;;;1.83;;
55368;SDS011;41247;49.736;8.752;2022-10-30T15:24:19;8.73;;;2.00;;
55368;SDS011;41247;49.736;8.752;2022-10-30T15:28:05;6.78;;;1.98;;
55368;SDS011;41247;49.736;8.752;2022-10-30T15:32:01;7.07;;;2.15;;
55368;SDS011;41247;49.736;8.752;2022-10-30T15:35:45;13.23;;;2.30;;
55368;SDS011;41247;49.736;8.752;2022-10-30T15:39:26;6.60;;;1.97;;
55368;SDS011;41247;49.736;8.752;2022-10-30T15:43:07;7.95;;;2.13;;
55368;SDS011;41247;49.736;8.752;2022-10-30T15:46:52;11.63;;;2.30;;
55368;SDS011;41247;49.736;8.752;2022-10-30T15:50:36;11.20;;;2.00;;
55368;SDS011;41247;49.736;8.752;2022-10-30T15:54:23;7.47;;;1.65;;
55368;SDS011;41247;49.736;8.752;2022-10-30T15:58:06;4.65;;;1.50;;
55368;SDS011;41247;49.736;8.752;2022-10-30T16:01:47;7.75;;;1.80;;
55368;SDS011;41247;49.736;8.752;2022-10-30T16:05:29;6.97;;;1.85;;
55368;SDS011;41247;49.736;8.752;2022-10-30T16:09:12;7.45;;;1.80;;
55368;SDS011;41247;49.736;8.752;2022-10-30T16:12:53;6.90;;;2.07;;
55368;SDS011;41247;49.736;8.752;2022-10-30T16:16:36;6.33;;;1.97;;
55368;SDS011;41247;49.736;8.752;2022-10-30T16:20:16;7.22;;;1.83;;
55368;SDS011;41247;49.736;8.752;2022-10-30T16:23:58;7.35;;;1.60;;
55368;SDS011;41247;49.736;8.752;2022-10-30T16:27:44;5.60;;;1.45;;
55368;SDS011;41247;49.736;8.752;2022-10-30T16:31:27;5.63;;;1.58;;
55368;SDS011;41247;49.736;8.752;2022-10-30T16:35:12;11.57;;;2.00;;
55368;SDS011;41247;49.736;8.752;2022-10-30T16:38:53;6.82;;;1.50;;
55368;SDS011;41247;49.736;8.752;2022-10-30T16:42:35;7.70;;;1.92;;
55368;SDS011;41247;49.736;8.752;2022-10-30T16:49:56;10.88;;;1.83;;
55368;SDS011;41247;49.736;8.752;2022-10-30T16:53:37;9.45;;;1.88;;
55368;SDS011;41247;49.736;8.752;2022-10-30T16:57:22;6.85;;;1.77;;
55368;SDS011;41247;49.736;8.752;2022-10-30T17:01:06;10.00;;;1.60;;
55368;SDS011;41247;49.736;8.752;2022-10-30T17:04:51;9.05;;;1.95;;
55368;SDS011;41247;49.736;8.752;2022-10-30T17:08:40;6.60;;;1.95;;
55368;SDS011;41247;49.736;8.752;2022-10-30T17:12:23;4.85;;;1.60;;
55368;SDS011;41247;49.736;8.752;2022-10-30T17:23:59;9.15;;;1.73;;
55368;SDS011;41247;49.736;8.752;2022-10-30T17:27:43;5.78;;;2.08;;
55368;SDS011;41247;49.736;8.752;2022-10-30T17:35:18;8.07;;;1.70;;
55368;SDS011;41247;49.736;8.752;2022-10-30T17:38:59;9.73;;;2.00;;
55368;SDS011;41247;49.736;8.752;2022-10-30T17:42:39;8.70;;;1.90;;
55368;SDS011;41247;49.736;8.752;2022-10-30T17:50:06;7.22;;;1.92;;
55368;SDS011;41247;49.736;8.752;2022-10-30T17:53:48;7.75;;;2.00;;
55368;SDS011;41247;49.736;8.752;2022-10-30T17:57:29;8.05;;;1.70;;
55368;SDS011;41247;49.736;8.752;2022-10-30T18:01:12;6.20;;;1.75;;
55368;SDS011;41247;49.736;8.752;2022-10-30T18:04:55;7.78;;;1.90;;
55368;SDS011;41247;49.736;8.752;2022-10-30T18:08:36;7.82;;;1.85;;
55368;SDS011;41247;49.736;8.752;2022-10-30T18:12:16;8.45;;;2.00;;
55368;SDS011;41247;49.736;8.752;2022-10-30T18:15:57;8.02;;;2.25;;
55368;SDS011;41247;49.736;8.752;2022-10-30T18:19:38;9.48;;;2.25;;
55368;SDS011;41247;49.736;8.752;2022-10-30T18:23:19;6.57;;;2.10;;
55368;SDS011;41247;49.736;8.752;2022-10-30T18:27:03;8.57;;;2.20;;
55368;SDS011;41247;49.736;8.752;2022-10-30T18:30:46;6.72;;;2.40;;
55368;SDS011;41247;49.736;8.752;2022-10-30T18:34:30;12.63;;;2.13;;
55368;SDS011;41247;49.736;8.752;2022-10-30T18:38:10;7.38;;;2.00;;
55368;SDS011;41247;49.736;8.752;2022-10-30T18:41:51;7.18;;;2.35;;
55368;SDS011;41247;49.736;8.752;2022-10-30T18:45:32;9.70;;;2.72;;
55368;SDS011;41247;49.736;8.752;2022-10-30T18:49:15;8.48;;;2.40;;
55368;SDS011;41247;49.736;8.752;2022-10-30T18:52:56;9.15;;;2.33;;
55368;SDS011;41247;49.736;8.752;2022-10-30T18:56:37;6.18;;;2.22;;
55368;SDS011;41247;49.736;8.752;2022-10-30T19:00:19;9.30;;;2.50;;
55368;SDS011;41247;49.736;8.752;2022-10-30T19:04:01;11.23;;;2.53;;
55368;SDS011;41247;49.736;8.752;2022-10-30T19:07:47;10.18;;;2.30;;
55368;SDS011;41247;49.736;8.752;2022-10-30T19:11:28;10.55;;;2.28;;
55368;SDS011;41247;49.736;8.752;2022-10-30T19:15:16;8.80;;;2.28;;
55368;SDS011;41247;49.736;8.752;2022-10-30T19:18:59;7.43;;;2.10;;
55368;SDS011;41247;49.736;8.752;2022-10-30T19:22:40;5.65;;;2.40;;
55368;SDS011;41247;49.736;8.752;2022-10-30T19:26:21;7.60;;;2.38;;
55368;SDS011;41247;49.736;8.752;2022-10-30T19:30:01;6.80;;;2.08;;
55368;SDS011;41247;49.736;8.752;2022-10-30T19:33:42;4.85;;;2.38;;
55368;SDS011;41247;49.736;8.752;2022-10-30T19:37:23;7.45;;;2.55;;
55368;SDS011;41247;49.736;8.752;2022-10-30T19:41:04;8.38;;;2.40;;
55368;SDS011;41247;49.736;8.752;2022-10-30T19:44:45;10.85;;;2.30;;
55368;SDS011;41247;49.736;8.752;2022-10-30T19:48:25;10.77;;;3.22;;
55368;SDS011;41247;49.736;8.752;2022-10-30T19:52:06;12.50;;;3.38;;
55368;SDS011;41247;49.736;8.752;2022-10-30T19:55:47;10.02;;;2.55;;
55368;SDS011;41247;49.736;8.752;2022-10-30T19:59:28;12.23;;;2.70;;
55368;SDS011;41247;49.736;8.752;2022-10-30T20:03:09;7.32;;;2.47;;
55368;SDS011;41247;49.736;8.752;2022-10-30T20:06:53;8.32;;;3.28;;
55368;SDS011;41247;49.736;8.752;2022-10-30T20:10:34;5.35;;;2.63;;
55368;SDS011;41247;49.736;8.752;2022-10-30T20:14:17;10.05;;;3.15;;
55368;SDS011;41247;49.736;8.752;2022-10-30T20:17:57;11.85;;;3.00;;
55368;SDS011;41247;49.736;8.752;2022-10-30T20:21:39;11.52;;;3.00;;
55368;SDS011;41247;49.736;8.752;2022-10-30T20:25:19;7.47;;;2.97;;
55368;SDS011;41247;49.736;8.752;2022-10-30T20:29:01;9.65;;;2.70;;
55368;SDS011;41247;49.736;8.752;2022-10-30T20:32:42;9.32;;;2.83;;
55368;SDS011;41247;49.736;8.752;2022-10-30T20:36:23;7.07;;;2.85;;
55368;SDS011;41247;49.736;8.752;2022-10-30T20:40:04;9.02;;;2.75;;
55368;SDS011;41247;49.736;8.752;2022-10-30T20:43:50;11.82;;;2.90;;
55368;SDS011;41247;49.736;8.752;2022-10-30T20:47:31;12.05;;;3.30;;
55368;SDS011;41247;49.736;8.752;2022-10-30T20:51:24;7.55;;;3.08;;
55368;SDS011;41247;49.736;8.752;2022-10-30T20:55:05;8.40;;;3.08;;
55368;SDS011;41247;49.736;8.752;2022-10-30T20:58:46;8.43;;;2.97;;
55368;SDS011;41247;49.736;8.752;2022-10-30T21:02:27;9.10;;;2.63;;
55368;SDS011;41247;49.736;8.752;2022-10-30T21:06:07;8.10;;;3.42;;
55368;SDS011;41247;49.736;8.752;2022-10-30T21:09:48;13.68;;;3.28;;
55368;SDS011;41247;49.736;8.752;2022-10-30T21:13:29;14.90;;;3.53;;
55368;SDS011;41247;49.736;8.752;2022-10-30T21:17:12;13.00;;;3.40;;
55368;SDS011;41247;49.736;8.752;2022-10-30T21:20:53;16.95;;;3.60;;
55368;SDS011;41247;49.736;8.752;2022-10-30T21:24:34;11.73;;;3.63;;
55368;SDS011;41247;49.736;8.752;2022-10-30T21:28:15;13.20;;;4.35;;
55368;SDS011;41247;49.736;8.752;2022-10-30T21:31:56;10.77;;;3.92;;
55368;SDS011;41247;49.736;8.752;2022-10-30T21:35:36;9.43;;;3.50;;
55368;SDS011;41247;49.736;8.752;2022-10-30T21:39:17;10.23;;;3.90;;
55368;SDS011;41247;49.736;8.752;2022-10-30T21:42:57;12.80;;;3.40;;
55368;SDS011;41247;49.736;8.752;2022-10-30T21:46:38;13.18;;;3.97;;
55368;SDS011;41247;49.736;8.752;2022-10-30T21:50:19;10.40;;;3.83;;
55368;SDS011;41247;49.736;8.752;2022-10-30T21:53:59;13.30;;;4.10;;
55368;SDS011;41247;49.736;8.752;2022-10-30T21:57:40;15.98;;;4.03;;
55368;SDS011;41247;49.736;8.752;2022-10-30T22:01:21;11.63;;;4.00;;
55368;SDS011;41247;49.736;8.752;2022-10-30T22:05:07;13.00;;;3.92;;
55368;SDS011;41247;49.736;8.752;2022-10-30T22:08:48;17.45;;;4.15;;
55368;SDS011;41247;49.736;8.752;2022-10-30T22:12:31;15.57;;;4.25;;
55368;SDS011;41247;49.736;8.752;2022-10-30T22:16:12;14.02;;;4.20;;
55368;SDS011;41247;49.736;8.752;2022-10-30T22:19:53;12.38;;;4.03;;
55368;SDS011;41247;49.736;8.752;2022-10-30T22:23:35;9.57;;;3.78;;
55368;SDS011;41247;49.736;8.752;2022-10-30T22:27:16;14.55;;;4.22;;
55368;SDS011;41247;49.736;8.752;2022-10-30T22:31:04;8.07;;;4.30;;
55368;SDS011;41247;49.736;8.752;2022-10-30T22:34:53;13.55;;;4.53;;
55368;SDS011;41247;49.736;8.752;2022-10-30T22:38:35;10.68;;;4.13;;
55368;SDS011;41247;49.736;8.752;2022-10-30T22:42:15;10.27;;;4.25;;
55368;SDS011;41247;49.736;8.752;2022-10-30T22:45:56;10.18;;;4.22;;
55368;SDS011;41247;49.736;8.752;2022-10-30T22:49:37;12.75;;;3.95;;
55368;SDS011;41247;49.736;8.752;2022-10-30T22:53:17;10.30;;;4.07;;
55368;SDS011;41247;49.736;8.752;2022-10-30T22:56:58;11.63;;;3.97;;
55368;SDS011;41247;49.736;8.752;2022-10-30T23:00:38;10.38;;;3.90;;
55368;SDS011;41247;49.736;8.752;2022-10-30T23:04:19;17.95;;;4.40;;
55368;SDS011;41247;49.736;8.752;2022-10-30T23:07:59;11.73;;;3.65;;
55368;SDS011;41247;49.736;8.752;2022-10-30T23:11:40;13.10;;;3.80;;
55368;SDS011;41247;49.736;8.752;2022-10-30T23:15:22;12.07;;;4.35;;
55368;SDS011;41247;49.736;8.752;2022-10-30T23:19:02;6.75;;;3.55;;
55368;SDS011;41247;49.736;8.752;2022-10-30T23:22:43;11.05;;;4.25;;
55368;SDS011;41247;49.736;8.752;2022-10-30T23:26:25;11.13;;;3.70;;
55368;SDS011;41247;49.736;8.752;2022-10-30T23:30:09;9.02;;;3.67;;
55368;SDS011;41247;49.736;8.752;2022-10-30T23:33:50;7.03;;;3.50;;
55368;SDS011;41247;49.736;8.752;2022-10-30T23:41:14;9.88;;;4.10;;
55368;SDS011;41247;49.736;8.752;2022-10-30T23:44:55;9.40;;;3.55;;
55368;SDS011;41247;49.736;8.752;2022-10-30T23:48:35;11.88;;;3.80;;
55368;SDS011;41247;49.736;8.752;2022-10-30T23:52:16;10.25;;;3.50;;
55368;SDS011;41247;49.736;8.752;2022-10-30T23:55:57;9.48;;;3.35;;
55368;SDS011;41247;49.736;8.752;2022-10-30T23:59:37;16.55;;;3.63;;
